createdAt,value
2019-01-26T00:01:32.252Z,39.20
2019-01-26T00:04:00.522Z,34.90
2019-01-26T00:06:28.793Z,37.50
2019-01-26T00:08:57.062Z,36.13
2019-01-26T00:11:25.340Z,34.67
2019-01-26T00:13:53.621Z,35.57
2019-01-26T00:16:21.882Z,35.77
2019-01-26T00:18:50.178Z,38.10
2019-01-26T00:21:18.439Z,38.17
2019-01-26T00:23:46.705Z,35.58
2019-01-26T00:26:14.976Z,39.30
2019-01-26T00:28:43.254Z,38.23
2019-01-26T00:31:11.524Z,36.50
2019-01-26T00:33:43.286Z,39.60
2019-01-26T00:36:10.493Z,37.47
2019-01-26T00:38:38.758Z,32.63
2019-01-26T00:41:07.043Z,33.03
2019-01-26T00:43:35.318Z,34.53
2019-01-26T00:46:03.587Z,33.33
2019-01-26T00:48:31.864Z,36.00
2019-01-26T00:51:00.141Z,36.67
2019-01-26T00:53:28.497Z,30.67
2019-01-26T00:55:56.777Z,36.73
2019-01-26T00:58:25.046Z,33.10
2019-01-26T01:00:53.326Z,34.25
2019-01-26T01:03:21.607Z,33.15
2019-01-26T01:05:49.884Z,31.70
2019-01-26T01:08:18.157Z,34.67
2019-01-26T01:10:46.499Z,35.10
2019-01-26T01:13:14.775Z,34.70
2019-01-26T01:15:43.065Z,33.43
2019-01-26T01:18:11.346Z,33.65
2019-01-26T01:20:39.631Z,32.50
2019-01-26T01:23:07.890Z,33.35
2019-01-26T01:25:36.171Z,34.30
2019-01-26T01:28:04.607Z,32.65
2019-01-26T01:30:32.869Z,31.55
2019-01-26T01:33:01.131Z,30.62
2019-01-26T01:35:29.414Z,32.30
2019-01-26T01:37:57.673Z,33.60
2019-01-26T01:40:25.961Z,33.70
2019-01-26T01:42:54.217Z,34.77
2019-01-26T01:46:02.536Z,32.60
2019-01-26T01:48:30.808Z,33.13
2019-01-26T01:50:59.072Z,33.65
2019-01-26T01:53:27.340Z,34.60
2019-01-26T01:55:55.624Z,32.87
2019-01-26T01:58:23.917Z,35.50
2019-01-26T02:00:52.185Z,35.57
2019-01-26T02:03:20.446Z,33.57
2019-01-26T02:05:48.714Z,35.43
2019-01-26T02:08:16.980Z,38.05
2019-01-26T02:10:45.262Z,37.57
2019-01-26T02:13:13.525Z,34.00
2019-01-26T02:15:41.784Z,38.97
2019-01-26T02:18:10.119Z,36.50
2019-01-26T02:20:38.400Z,36.77
2019-01-26T02:23:06.668Z,39.90
2019-01-26T02:25:34.927Z,38.03
2019-01-26T02:28:03.203Z,37.20
2019-01-26T02:30:31.474Z,43.90
2019-01-26T02:32:59.782Z,40.47
2019-01-26T02:35:28.050Z,39.60
2019-01-26T02:37:56.322Z,38.20
2019-01-26T02:40:24.584Z,38.57
2019-01-26T02:42:52.852Z,42.40
2019-01-26T02:45:21.139Z,40.47
2019-01-26T02:47:49.371Z,41.88
2019-01-26T02:50:36.973Z,42.58
2019-01-26T02:53:05.256Z,39.33
2019-01-26T02:55:33.516Z,46.37
2019-01-26T02:58:01.764Z,40.60
2019-01-26T03:00:30.033Z,43.83
2019-01-26T03:02:58.292Z,43.83
2019-01-26T03:05:26.570Z,40.95
2019-01-26T03:07:54.830Z,41.02
2019-01-26T03:11:03.143Z,41.20
2019-01-26T03:13:31.408Z,33.37
2019-01-26T03:15:59.662Z,36.80
2019-01-26T03:18:27.950Z,34.33
2019-01-26T03:20:56.213Z,34.30
2019-01-26T03:23:24.674Z,32.33
2019-01-26T03:25:52.939Z,37.40
2019-01-26T03:28:21.193Z,32.40
2019-01-26T03:30:49.488Z,32.27
2019-01-26T03:33:17.733Z,33.47
2019-01-26T03:35:45.988Z,30.50
2019-01-26T03:38:14.236Z,34.13
2019-01-26T03:40:42.523Z,30.55
2019-01-26T03:43:10.807Z,31.25
2019-01-26T03:45:39.076Z,30.30
2019-01-26T03:48:07.334Z,28.80
2019-01-26T03:50:35.599Z,34.97
2019-01-26T03:53:04.522Z,31.62
2019-01-26T03:55:32.779Z,37.20
2019-01-26T03:58:01.042Z,34.00
2019-01-26T04:00:29.325Z,35.48
2019-01-26T04:02:57.601Z,37.23
2019-01-26T04:08:27.432Z,34.77
2019-01-26T04:10:55.678Z,31.00
2019-01-26T04:13:23.942Z,39.53
2019-01-26T04:15:52.201Z,30.80
2019-01-26T04:18:20.504Z,32.80
2019-01-26T04:20:48.788Z,32.98
2019-01-26T04:23:17.051Z,33.50
2019-01-26T04:25:45.318Z,32.17
2019-01-26T04:30:52.534Z,34.87
2019-01-26T04:33:20.826Z,32.40
2019-01-26T04:35:49.059Z,33.33
2019-01-26T04:38:17.308Z,36.37
2019-01-26T04:40:45.585Z,35.20
2019-01-26T04:43:13.840Z,35.57
2019-01-26T04:45:42.117Z,34.25
2019-01-26T04:48:10.368Z,33.33
2019-01-26T04:50:38.635Z,32.20
2019-01-26T04:53:06.911Z,30.43
2019-01-26T04:55:35.168Z,33.03
2019-01-26T04:58:03.466Z,30.17
2019-01-26T05:00:31.720Z,33.67
2019-01-26T05:03:00.009Z,30.00
2019-01-26T05:05:28.281Z,31.23
2019-01-26T05:07:56.523Z,34.07
2019-01-26T05:10:24.775Z,29.13
2019-01-26T05:12:53.791Z,31.23
2019-01-26T05:15:22.071Z,29.90
2019-01-26T05:17:50.358Z,32.63
2019-01-26T05:20:58.673Z,35.05
2019-01-26T05:23:26.940Z,31.97
2019-01-26T05:25:55.215Z,31.07
2019-01-26T05:28:23.482Z,28.25
2019-01-26T05:30:51.757Z,29.80
2019-01-26T05:33:20.012Z,30.00
2019-01-26T05:35:48.285Z,33.20
2019-01-26T05:38:16.567Z,30.77
2019-01-26T05:40:44.832Z,27.17
2019-01-26T05:43:13.110Z,28.65
2019-01-26T05:45:41.385Z,30.50
2019-01-26T05:48:09.644Z,30.40
2019-01-26T05:50:37.921Z,30.37
2019-01-26T05:53:06.174Z,31.33
2019-01-26T05:55:34.449Z,34.23
2019-01-26T05:58:02.713Z,30.75
2019-01-26T06:03:09.926Z,31.13
2019-01-26T06:05:38.185Z,30.07
2019-01-26T06:08:06.445Z,28.32
2019-01-26T06:10:34.708Z,29.60
2019-01-26T06:13:03.029Z,27.67
2019-01-26T06:15:31.289Z,26.30
2019-01-26T06:17:59.558Z,25.97
2019-01-26T06:20:27.849Z,26.57
2019-01-26T06:22:56.092Z,26.65
2019-01-26T06:25:24.348Z,28.97
2019-01-26T06:27:52.615Z,25.45
2019-01-26T06:31:00.913Z,27.17
2019-01-26T06:33:29.182Z,24.37
2019-01-26T06:35:57.443Z,25.53
2019-01-26T06:38:25.713Z,26.87
2019-01-26T06:40:53.978Z,25.20
2019-01-26T06:43:22.234Z,25.00
2019-01-26T06:45:50.498Z,23.57
2019-01-26T06:48:18.749Z,23.87
2019-01-26T06:50:47.023Z,23.10
2019-01-26T06:53:15.283Z,21.80
2019-01-26T06:55:43.545Z,20.23
2019-01-26T06:58:11.807Z,19.53
2019-01-26T07:00:40.058Z,21.13
2019-01-26T07:03:08.317Z,20.03
2019-01-26T07:05:55.700Z,22.93
2019-01-26T07:08:24.018Z,21.30
2019-01-26T07:10:52.385Z,23.90
2019-01-26T07:13:20.635Z,20.80
2019-01-26T07:15:48.886Z,22.40
2019-01-26T07:18:17.156Z,22.33
2019-01-26T07:20:45.427Z,20.40
2019-01-26T07:23:25.891Z,22.80
2019-01-26T07:25:55.191Z,21.60
2019-01-26T07:28:42.798Z,23.45
2019-01-26T07:31:11.055Z,21.97
2019-01-26T07:33:40.362Z,22.74
2019-01-26T07:36:08.610Z,24.57
2019-01-26T07:38:36.863Z,24.07
2019-01-26T07:41:05.120Z,23.50
2019-01-26T07:43:33.402Z,23.27
2019-01-26T07:46:01.654Z,22.67
2019-01-26T07:48:29.918Z,22.48
2019-01-26T07:50:58.206Z,20.68
2019-01-26T07:53:26.474Z,25.30
2019-01-26T07:55:54.737Z,20.73
2019-01-26T07:58:22.997Z,22.93
2019-01-26T08:00:51.259Z,23.20
2019-01-26T08:03:19.533Z,22.07
2019-01-26T08:05:47.775Z,23.00
2019-01-26T08:08:16.047Z,22.00
2019-01-26T08:10:44.314Z,21.25
2019-01-26T08:13:12.555Z,22.10
2019-01-26T08:15:40.841Z,21.97
2019-01-26T08:18:09.115Z,20.60
2019-01-26T08:20:37.398Z,21.95
2019-01-26T08:23:05.636Z,20.70
2019-01-26T08:25:33.899Z,21.00
2019-01-26T08:28:02.179Z,19.30
2019-01-26T08:30:30.515Z,20.13
2019-01-26T08:32:58.779Z,19.13
2019-01-26T08:35:27.053Z,20.23
2019-01-26T08:37:55.294Z,17.43
2019-01-26T08:40:23.558Z,18.90
2019-01-26T08:42:51.823Z,18.00
2019-01-26T08:45:20.119Z,19.23
2019-01-26T08:48:31.376Z,19.10
2019-01-26T08:50:58.346Z,18.67
2019-01-26T08:53:26.615Z,19.30
2019-01-26T08:55:54.877Z,19.10
2019-01-26T08:58:23.153Z,19.00
2019-01-26T09:00:51.405Z,19.35
2019-01-26T09:08:37.572Z,21.30
2019-01-26T09:11:05.900Z,22.07
2019-01-26T09:13:34.181Z,19.50
2019-01-26T09:16:02.433Z,20.50
2019-01-26T09:18:30.701Z,22.43
2019-01-26T09:20:58.956Z,22.80
2019-01-26T09:23:27.202Z,20.17
2019-01-26T09:25:55.486Z,21.03
2019-01-26T09:28:23.741Z,19.42
2019-01-26T09:30:51.988Z,21.93
2019-01-26T09:33:20.323Z,19.20
2019-01-26T09:35:48.613Z,22.73
2019-01-26T09:38:16.869Z,22.10
2019-01-26T09:40:45.122Z,23.90
2019-01-26T09:43:13.399Z,23.73
2019-01-26T09:45:41.641Z,24.50
2019-01-26T09:48:09.934Z,21.73
2019-01-26T09:50:38.193Z,18.98
2019-01-26T09:53:06.455Z,18.03
2019-01-26T09:55:34.711Z,17.70
2019-01-26T09:58:02.978Z,16.97
2019-01-26T10:00:31.298Z,19.10
2019-01-26T10:02:59.561Z,18.77
2019-01-26T10:05:27.846Z,20.17
2019-01-26T10:07:56.077Z,20.23
2019-01-26T10:10:24.411Z,21.02
2019-01-26T10:12:52.725Z,21.10
2019-01-26T10:16:01.054Z,18.73
2019-01-26T10:18:29.311Z,17.60
2019-01-26T10:20:57.583Z,19.67
2019-01-26T10:23:25.898Z,17.80
2019-01-26T10:25:54.163Z,21.93
2019-01-26T10:28:22.424Z,19.93
2019-01-26T10:33:29.640Z,20.63
2019-01-26T10:36:17.050Z,21.13
2019-01-26T10:41:53.418Z,18.17
2019-01-26T10:47:10.651Z,16.97
2019-01-26T10:49:38.913Z,20.13
2019-01-26T10:52:07.243Z,16.45
2019-01-26T10:54:35.508Z,17.03
2019-01-26T11:00:45.436Z,16.33
2019-01-26T11:03:13.710Z,16.40
2019-01-26T11:05:41.959Z,17.50
2019-01-26T11:08:10.235Z,17.03
2019-01-26T11:10:38.516Z,15.43
2019-01-26T11:13:06.774Z,15.83
2019-01-26T11:15:35.035Z,14.80
2019-01-26T11:18:03.353Z,15.13
2019-01-26T11:20:31.819Z,14.55
2019-01-26T11:23:00.071Z,12.88
2019-01-26T11:25:28.385Z,16.37
2019-01-26T11:27:56.663Z,14.25
2019-01-26T11:33:03.885Z,13.90
2019-01-26T11:35:32.138Z,19.30
2019-01-26T11:38:00.408Z,17.55
2019-01-26T11:40:28.680Z,17.67
2019-01-26T11:42:57.042Z,14.80
2019-01-26T11:45:44.427Z,14.67
2019-01-26T11:53:30.601Z,17.00
2019-01-26T11:56:17.991Z,13.33
2019-01-26T11:58:46.239Z,13.77
2019-01-26T12:01:33.614Z,14.50
2019-01-26T12:04:20.988Z,14.20
2019-01-26T12:09:28.210Z,14.50
2019-01-26T12:11:56.470Z,14.60
2019-01-26T12:14:24.772Z,13.73
2019-01-26T12:16:53.016Z,15.00
2019-01-26T12:19:22.474Z,15.53
2019-01-26T12:21:51.255Z,15.00
2019-01-26T12:24:19.522Z,16.50
2019-01-26T12:26:47.787Z,15.67
2019-01-26T12:29:16.040Z,13.17
2019-01-26T12:31:44.303Z,14.90
2019-01-26T12:34:12.585Z,14.97
2019-01-26T12:36:40.853Z,15.03
2019-01-26T12:39:49.149Z,15.80
2019-01-26T12:42:17.406Z,14.77
2019-01-26T12:44:45.690Z,14.20
2019-01-26T12:47:17.038Z,14.27
2019-01-26T12:49:43.937Z,15.57
2019-01-26T12:52:12.194Z,13.13
2019-01-26T12:54:40.456Z,16.40
2019-01-26T12:57:08.722Z,14.90
2019-01-26T12:59:36.994Z,17.30
2019-01-26T13:02:05.494Z,17.80
2019-01-26T13:04:53.084Z,15.53
2019-01-26T13:07:21.348Z,17.10
2019-01-26T13:09:49.621Z,15.40
2019-01-26T13:12:17.890Z,15.88
2019-01-26T13:14:46.171Z,17.47
2019-01-26T13:17:14.448Z,17.17
2019-01-26T13:19:43.795Z,17.80
2019-01-26T13:22:12.111Z,15.80
2019-01-26T13:24:40.410Z,15.00
2019-01-26T13:27:08.682Z,13.60
2019-01-26T13:29:36.957Z,14.73
2019-01-26T13:32:05.298Z,14.17
2019-01-26T13:34:33.579Z,17.47
2019-01-26T13:37:01.876Z,17.27
2019-01-26T13:39:30.131Z,16.93
2019-01-26T13:41:58.410Z,14.40
2019-01-26T13:44:26.759Z,14.07
2019-01-26T13:46:55.024Z,14.80
2019-01-26T13:49:23.349Z,13.00
2019-01-26T13:51:51.949Z,13.30
2019-01-26T13:54:20.242Z,13.17
2019-01-26T13:56:48.573Z,14.77
2019-01-26T13:59:16.857Z,17.07
2019-01-26T14:01:45.204Z,14.90
2019-01-26T14:04:13.507Z,14.00
2019-01-26T14:06:41.858Z,14.27
2019-01-26T14:09:49.172Z,15.80
2019-01-26T14:12:17.458Z,14.70
2019-01-26T14:14:45.761Z,15.03
2019-01-26T14:17:14.083Z,15.90
2019-01-26T14:19:42.441Z,14.80
2019-01-26T14:22:13.590Z,14.65
2019-01-26T14:25:03.197Z,12.57
2019-01-26T14:36:56.205Z,16.60
2019-01-26T14:39:39.900Z,14.43
2019-01-26T14:45:52.913Z,14.43
2019-01-26T14:48:21.184Z,14.95
2019-01-26T14:53:38.775Z,15.37
2019-01-26T14:56:07.100Z,14.70
2019-01-26T14:58:35.385Z,16.90
2019-01-26T15:01:06.435Z,16.48
2019-01-26T15:03:34.750Z,15.30
2019-01-26T15:06:03.002Z,16.05
2019-01-26T15:08:31.262Z,16.12
2019-01-26T15:10:59.518Z,15.30
2019-01-26T15:13:27.911Z,14.50
2019-01-26T15:15:57.917Z,14.80
2019-01-26T15:18:28.894Z,14.50
2019-01-26T15:20:57.574Z,15.97
2019-01-26T15:23:25.834Z,15.50
2019-01-26T15:25:54.102Z,17.02
2019-01-26T15:28:22.389Z,15.13
2019-01-26T15:30:53.448Z,15.37
2019-01-26T15:33:21.699Z,14.43
2019-01-26T15:35:49.984Z,14.57
2019-01-26T15:38:19.206Z,14.13
2019-01-26T15:40:47.474Z,17.73
2019-01-26T15:43:15.725Z,15.87
2019-01-26T15:45:44.469Z,15.13
2019-01-26T15:48:12.725Z,14.23
2019-01-26T15:50:41.992Z,14.80
2019-01-26T15:53:10.286Z,14.50
2019-01-26T15:55:38.545Z,14.10
2019-01-26T15:58:06.892Z,13.27
2019-01-26T16:00:43.310Z,12.50
2019-01-26T16:03:11.717Z,13.20
2019-01-26T16:05:39.974Z,10.93
2019-01-26T16:08:08.292Z,12.40
2019-01-26T16:10:36.600Z,13.22
2019-01-26T16:13:05.021Z,11.47
2019-01-26T16:15:35.820Z,11.77
2019-01-26T16:18:05.640Z,12.20
2019-01-26T16:20:34.195Z,11.78
2019-01-26T16:23:09.027Z,13.15
2019-01-26T16:25:32.601Z,11.47
2019-01-26T16:28:00.860Z,11.05
2019-01-26T16:30:31.154Z,12.07
2019-01-26T16:32:59.706Z,10.47
2019-01-26T16:35:28.158Z,10.40
2019-01-26T16:37:58.316Z,11.13
2019-01-26T16:40:29.315Z,10.07
2019-01-26T16:43:01.502Z,10.87
2019-01-26T16:45:32.767Z,9.50
2019-01-26T16:48:04.504Z,10.17
2019-01-26T16:50:32.799Z,10.30
2019-01-26T16:53:01.075Z,9.83
2019-01-26T16:55:29.336Z,8.33
2019-01-26T16:57:57.617Z,10.00
2019-01-26T17:00:40.794Z,9.30
2019-01-26T17:03:10.660Z,9.97
2019-01-26T17:05:39.148Z,9.93
2019-01-26T17:08:08.043Z,9.38
2019-01-26T17:10:36.510Z,8.70
2019-01-26T17:13:04.708Z,9.97
2019-01-26T17:15:32.997Z,10.10
2019-01-26T17:18:01.296Z,10.60
2019-01-26T17:20:37.336Z,8.80
2019-01-26T17:23:08.315Z,9.73
2019-01-26T17:25:36.624Z,8.85
2019-01-26T17:28:08.375Z,9.87
2019-01-26T17:30:38.882Z,9.55
2019-01-26T17:33:07.901Z,9.93
2019-01-26T17:35:37.566Z,9.97
2019-01-26T17:38:06.433Z,9.45
2019-01-26T17:40:34.986Z,11.22
2019-01-26T17:43:03.289Z,12.37
2019-01-26T17:45:31.581Z,11.75
2019-01-26T17:47:59.947Z,11.07
2019-01-26T17:50:29.044Z,11.53
2019-01-26T17:52:57.325Z,12.30
2019-01-26T17:55:25.600Z,11.93
2019-01-26T17:57:55.941Z,14.50
2019-01-26T18:00:34.164Z,12.30
2019-01-26T18:03:03.933Z,11.73
2019-01-26T18:05:33.948Z,12.47
2019-01-26T18:08:02.254Z,11.63
2019-01-26T18:10:30.669Z,15.00
2019-01-26T18:12:59.910Z,12.17
2019-01-26T18:15:29.189Z,12.47
2019-01-26T18:17:58.190Z,11.90
2019-01-26T18:20:29.777Z,12.27
2019-01-26T18:22:59.141Z,11.77
2019-01-26T18:25:29.073Z,11.87
2019-01-26T18:27:57.429Z,12.70
2019-01-26T18:30:30.535Z,12.20
2019-01-26T18:32:58.887Z,15.08
2019-01-26T18:35:28.705Z,14.63
2019-01-26T18:37:57.021Z,14.90
2019-01-26T18:40:28.405Z,13.60
2019-01-26T18:42:56.688Z,13.97
2019-01-26T18:45:29.854Z,15.50
2019-01-26T18:47:58.274Z,16.03
2019-01-26T18:50:35.075Z,15.40
2019-01-26T18:53:03.471Z,17.98
2019-01-26T18:55:31.732Z,16.65
2019-01-26T18:58:00.022Z,15.23
2019-01-26T19:00:31.126Z,17.20
2019-01-26T19:03:23.383Z,15.80
2019-01-26T19:05:53.492Z,16.50
2019-01-26T19:08:22.981Z,17.53
2019-01-26T19:10:51.289Z,18.23
2019-01-26T19:13:19.568Z,19.27
2019-01-26T19:15:47.863Z,19.77
2019-01-26T19:18:19.659Z,18.87
2019-01-26T19:20:47.953Z,18.67
2019-01-26T19:23:16.503Z,20.70
2019-01-26T19:25:44.801Z,21.97
2019-01-26T19:28:13.084Z,23.90
2019-01-26T19:30:41.430Z,24.23
2019-01-26T19:33:09.800Z,23.77
2019-01-26T19:35:38.111Z,25.40
2019-01-26T19:38:06.439Z,25.37
2019-01-26T19:40:35.677Z,27.07
2019-01-26T19:43:05.503Z,26.30
2019-01-26T19:45:33.840Z,26.70
2019-01-26T19:48:03.173Z,28.23
2019-01-26T19:50:31.471Z,27.45
2019-01-26T19:52:59.785Z,25.17
2019-01-26T19:55:28.082Z,26.90
2019-01-26T19:57:56.419Z,26.50
2019-01-26T20:00:26.965Z,26.00
2019-01-26T20:02:55.259Z,27.13
2019-01-26T20:05:24.827Z,23.80
2019-01-26T20:07:53.183Z,21.40
2019-01-26T20:10:22.345Z,22.70
2019-01-26T20:12:50.619Z,21.85
2019-01-26T20:15:21.252Z,24.65
2019-01-26T20:17:49.698Z,25.20
2019-01-26T20:20:29.563Z,27.43
2019-01-26T20:22:57.911Z,25.37
2019-01-26T20:25:26.203Z,26.83
2019-01-26T20:27:54.507Z,27.30
2019-01-26T20:30:25.445Z,29.23
2019-01-26T20:32:53.865Z,27.20
2019-01-26T20:35:22.227Z,29.50
2019-01-26T20:37:50.518Z,28.67
2019-01-26T20:40:19.586Z,27.07
2019-01-26T20:42:47.900Z,25.53
2019-01-26T20:45:18.987Z,28.10
2019-01-26T20:47:47.105Z,26.40
2019-01-26T20:50:15.388Z,31.33
2019-01-26T20:52:43.991Z,25.90
2019-01-26T20:55:13.110Z,24.90
2019-01-26T20:57:41.418Z,26.60
2019-01-26T21:00:18.742Z,24.90
2019-01-26T21:02:47.108Z,24.97
2019-01-26T21:05:15.423Z,22.33
2019-01-26T21:07:45.113Z,21.93
2019-01-26T21:10:25.584Z,24.30
2019-01-26T21:12:53.897Z,23.97
2019-01-26T21:15:23.215Z,24.57
2019-01-26T21:17:51.530Z,24.60
2019-01-26T21:20:24.425Z,23.97
2019-01-26T21:22:52.806Z,24.18
2019-01-26T21:25:21.118Z,26.47
2019-01-26T21:27:49.428Z,26.15
2019-01-26T21:30:25.762Z,23.50
2019-01-26T21:32:54.312Z,21.97
2019-01-26T21:35:22.850Z,23.13
2019-01-26T21:37:51.150Z,23.30
2019-01-26T21:40:27.215Z,24.52
2019-01-26T21:42:55.502Z,26.03
2019-01-26T21:45:23.887Z,22.98
2019-01-26T21:47:52.190Z,24.43
2019-01-26T21:50:25.447Z,25.90
2019-01-26T21:52:53.775Z,26.73
2019-01-26T21:55:22.051Z,28.83
2019-01-26T21:57:50.379Z,26.07
2019-01-26T22:00:20.881Z,30.40
2019-01-26T22:02:49.293Z,27.33
2019-01-26T22:05:17.599Z,27.55
2019-01-26T22:07:45.898Z,28.85
2019-01-26T22:10:16.515Z,32.50
2019-01-26T22:12:45.794Z,27.23
2019-01-26T22:15:19.432Z,30.10
2019-01-26T22:17:47.716Z,29.07
2019-01-26T22:20:18.957Z,29.93
2019-01-26T22:22:47.925Z,29.17
2019-01-26T22:25:16.377Z,28.70
2019-01-26T22:27:44.713Z,32.80
2019-01-26T22:30:16.011Z,32.23
2019-01-26T22:32:44.367Z,31.57
2019-01-26T22:35:14.337Z,33.17
2019-01-26T22:37:42.605Z,29.93
2019-01-26T22:40:16.753Z,29.77
2019-01-26T22:42:45.088Z,28.98
2019-01-26T22:45:13.456Z,29.70
2019-01-26T22:47:41.731Z,30.12
2019-01-26T22:50:13.288Z,30.20
2019-01-26T22:52:41.660Z,30.87
2019-01-26T22:55:12.311Z,30.63
2019-01-26T22:57:41.222Z,30.80
2019-01-26T23:00:28.596Z,33.15
2019-01-26T23:02:56.959Z,31.60
2019-01-26T23:05:50.576Z,32.33
2019-01-26T23:08:22.039Z,31.60
2019-01-26T23:10:53.474Z,33.30
2019-01-26T23:13:24.634Z,32.10
2019-01-26T23:16:16.043Z,30.73
2019-01-26T23:19:13.041Z,32.25
2019-01-26T23:22:06.930Z,34.67
2019-01-26T23:24:57.699Z,32.50
2019-01-26T23:27:46.862Z,30.83
2019-01-26T23:30:29.437Z,32.00
2019-01-26T23:32:57.744Z,31.60
2019-01-26T23:35:26.038Z,34.10
2019-01-26T23:37:54.335Z,34.60
2019-01-26T23:40:22.647Z,33.57
2019-01-26T23:42:53.279Z,32.27
2019-01-26T23:45:21.571Z,31.27
2019-01-26T23:47:49.960Z,32.75
2019-01-26T23:50:19.097Z,32.93
2019-01-26T23:52:47.377Z,31.90
2019-01-26T23:55:15.684Z,35.20
2019-01-26T23:57:43.963Z,34.08
